Time;durP1;ratioP1;P1;durP2;ratioP2;P2;SDS_P1;SDS_P2;PMS_P1;PMS_P2;Temp;Humidity;BMP_temperature;BMP_pressure;BME280_temperature;BME280_humidity;BME280_pressure;Samples;Min_cycle;Max_cycle;Signal;HPM_P1;HPM_P2
2020/03/08 00:02:14;;;;;;;11.4;10;;;;;;;;;;;;;
2020/03/08 00:04:40;;;;;;;11.8;9.8;;;;;;;;;;;;;
2020/03/08 00:07:05;;;;;;;11.5;9.3;;;;;;;;;;;;;
2020/03/08 00:09:30;;;;;;;10;8.7;;;;;;;;;;;;;
2020/03/08 00:11:55;;;;;;;10.4;8.7;;;;;;;;;;;;;
2020/03/08 00:14:20;;;;;;;9.4;8.2;;;;;;;;;;;;;
2020/03/08 00:16:46;;;;;;;10.1;8.7;;;;;;;;;;;;;
2020/03/08 00:19:11;;;;;;;8.9;7.7;;;;;;;;;;;;;
2020/03/08 00:21:36;;;;;;;10.5;8.3;;;;;;;;;;;;;
2020/03/08 00:24:01;;;;;;;8.9;7.6;;;;;;;;;;;;;
2020/03/08 00:26:28;;;;;;;9.9;8.1;;;;;;;;;;;;;
2020/03/08 00:28:52;;;;;;;9.4;8.1;;;;;;;;;;;;;
2020/03/08 00:31:18;;;;;;;8.6;6.6;;;;;;;;;;;;;
2020/03/08 00:33:43;;;;;;;7.6;6.6;;;;;;;;;;;;;
2020/03/08 00:36:08;;;;;;;9.5;6.8;;;;;;;;;;;;;
2020/03/08 00:38:38;;;;;;;9.8;8.2;;;;;;;;;;;;;
2020/03/08 00:40:59;;;;;;;11.6;8.7;;;;;;;;;;;;;
2020/03/08 00:43:24;;;;;;;13.6;9.7;;;;;;;;;;;;;
2020/03/08 00:45:50;;;;;;;12.2;9.5;;;;;;;;;;;;;
2020/03/08 00:48:15;;;;;;;11.7;9.6;;;;;;;;;;;;;
2020/03/08 00:50:40;;;;;;;10.8;8.7;;;;;;;;;;;;;
2020/03/08 00:53:05;;;;;;;9.7;7.7;;;;;;;;;;;;;
2020/03/08 00:55:30;;;;;;;9.2;6.9;;;;;;;;;;;;;
2020/03/08 00:57:55;;;;;;;8.9;6.4;;;;;;;;;;;;;
2020/03/08 01:00:20;;;;;;;8.2;6.7;;;;;;;;;;;;;
2020/03/08 01:02:45;;;;;;;9;6.4;;;;;;;;;;;;;
2020/03/08 01:05:11;;;;;;;7.6;6.4;;;;;;;;;;;;;
2020/03/08 01:07:36;;;;;;;7.4;6.3;;;;;;;;;;;;;
2020/03/08 01:10:02;;;;;;;9.9;7.5;;;;;;;;;;;;;
2020/03/08 01:12:26;;;;;;;9.4;7.5;;;;;;;;;;;;;
2020/03/08 01:14:51;;;;;;;8.5;7.3;;;;;;;;;;;;;
2020/03/08 01:17:17;;;;;;;9;7.2;;;;;;;;;;;;;
2020/03/08 01:19:42;;;;;;;7.8;6.4;;;;;;;;;;;;;
2020/03/08 01:22:07;;;;;;;8.5;6.4;;;;;;;;;;;;;
2020/03/08 01:24:32;;;;;;;10.4;6.8;;;;;;;;;;;;;
2020/03/08 01:26:57;;;;;;;9.1;6.9;;;;;;;;;;;;;
2020/03/08 01:29:22;;;;;;;8.1;6.7;;;;;;;;;;;;;
2020/03/08 01:31:48;;;;;;;9.3;6.9;;;;;;;;;;;;;
2020/03/08 01:34:13;;;;;;;8.3;6.5;;;;;;;;;;;;;
2020/03/08 01:36:38;;;;;;;8;6.6;;;;;;;;;;;;;
2020/03/08 01:39:03;;;;;;;8.6;6.7;;;;;;;;;;;;;
2020/03/08 01:41:28;;;;;;;9.4;7.2;;;;;;;;;;;;;
2020/03/08 01:43:53;;;;;;;8.3;6.6;;;;;;;;;;;;;
2020/03/08 01:46:18;;;;;;;8.5;6.8;;;;;;;;;;;;;
2020/03/08 01:48:44;;;;;;;7.3;6.3;;;;;;;;;;;;;
2020/03/08 01:51:09;;;;;;;10.1;6.5;;;;;;;;;;;;;
2020/03/08 01:53:34;;;;;;;7.5;5.9;;;;;;;;;;;;;
2020/03/08 01:55:59;;;;;;;7.3;6.2;;;;;;;;;;;;;
2020/03/08 01:58:24;;;;;;;7.9;6.4;;;;;;;;;;;;;
2020/03/08 02:00:49;;;;;;;8;6.6;;;;;;;;;;;;;
2020/03/08 02:03:15;;;;;;;10.8;9;;;;;;;;;;;;;
2020/03/08 02:05:40;;;;;;;9.9;8.4;;;;;;;;;;;;;
2020/03/08 02:08:05;;;;;;;8.4;7.4;;;;;;;;;;;;;
2020/03/08 02:10:30;;;;;;;9;6.2;;;;;;;;;;;;;
2020/03/08 02:12:55;;;;;;;7.6;5.9;;;;;;;;;;;;;
2020/03/08 02:15:20;;;;;;;9.3;6.5;;;;;;;;;;;;;
2020/03/08 02:17:46;;;;;;;8.2;6.7;;;;;;;;;;;;;
2020/03/08 02:20:11;;;;;;;8.6;6.4;;;;;;;;;;;;;
2020/03/08 02:22:36;;;;;;;9.2;6.2;;;;;;;;;;;;;
2020/03/08 02:25:01;;;;;;;9.3;6.6;;;;;;;;;;;;;
2020/03/08 02:27:26;;;;;;;7.7;5.8;;;;;;;;;;;;;
2020/03/08 02:29:52;;;;;;;7.1;5.9;;;;;;;;;;;;;
2020/03/08 02:32:16;;;;;;;7.1;6;;;;;;;;;;;;;
2020/03/08 02:34:41;;;;;;;8.8;6.5;;;;;;;;;;;;;
2020/03/08 02:37:06;;;;;;;9.9;6.6;;;;;;;;;;;;;
2020/03/08 02:39:31;;;;;;;8.1;6.3;;;;;;;;;;;;;
2020/03/08 02:41:57;;;;;;;7.7;6;;;;;;;;;;;;;
2020/03/08 02:44:22;;;;;;;10.7;6.8;;;;;;;;;;;;;
2020/03/08 02:46:47;;;;;;;9;7;;;;;;;;;;;;;
2020/03/08 02:49:12;;;;;;;8.8;6.5;;;;;;;;;;;;;
2020/03/08 02:51:37;;;;;;;7.9;6.4;;;;;;;;;;;;;
2020/03/08 02:54:02;;;;;;;7.8;5;;;;;;;;;;;;;
2020/03/08 02:56:27;;;;;;;7.3;5.1;;;;;;;;;;;;;
2020/03/08 02:58:53;;;;;;;6.4;4.6;;;;;;;;;;;;;
2020/03/08 03:01:18;;;;;;;6.5;5;;;;;;;;;;;;;
2020/03/08 03:03:43;;;;;;;7.6;5.2;;;;;;;;;;;;;
2020/03/08 03:06:08;;;;;;;8.2;5.9;;;;;;;;;;;;;
2020/03/08 03:08:33;;;;;;;7.6;5.9;;;;;;;;;;;;;
2020/03/08 03:10:58;;;;;;;6.5;5.3;;;;;;;;;;;;;
2020/03/08 03:13:23;;;;;;;7.3;5.4;;;;;;;;;;;;;
2020/03/08 03:15:48;;;;;;;7.5;5.5;;;;;;;;;;;;;
2020/03/08 03:18:14;;;;;;;7;5.4;;;;;;;;;;;;;
2020/03/08 03:20:39;;;;;;;7.2;4.9;;;;;;;;;;;;;
2020/03/08 03:23:04;;;;;;;6.3;4.5;;;;;;;;;;;;;
2020/03/08 03:25:29;;;;;;;5.6;4.6;;;;;;;;;;;;;
2020/03/08 03:27:54;;;;;;;6.5;4.8;;;;;;;;;;;;;
2020/03/08 03:30:20;;;;;;;5.5;4.5;;;;;;;;;;;;;
2020/03/08 03:32:46;;;;;;;5.6;4.7;;;;;;;;;;;;;
2020/03/08 03:35:10;;;;;;;6.6;4.9;;;;;;;;;;;;;
2020/03/08 03:37:35;;;;;;;7.2;5.1;;;;;;;;;;;;;
2020/03/08 03:40:00;;;;;;;6.9;4.9;;;;;;;;;;;;;
2020/03/08 03:42:25;;;;;;;6.6;5.3;;;;;;;;;;;;;
2020/03/08 03:44:50;;;;;;;5.9;4.7;;;;;;;;;;;;;
2020/03/08 03:47:15;;;;;;;7.3;5;;;;;;;;;;;;;
2020/03/08 03:49:40;;;;;;;7.7;4.9;;;;;;;;;;;;;
2020/03/08 03:52:05;;;;;;;6;4.4;;;;;;;;;;;;;
2020/03/08 03:54:30;;;;;;;6.2;4.6;;;;;;;;;;;;;
2020/03/08 03:56:55;;;;;;;5.9;4.7;;;;;;;;;;;;;
2020/03/08 03:59:21;;;;;;;8.4;5.7;;;;;;;;;;;;;
2020/03/08 04:02:30;;;;;;;8.6;6;;;;;;;0.65;84.20898;942.4109;;;;
2020/03/08 04:04:55;;;;;;;7.1;5.7;;;;;;;0.72;84.125;942.3242;;;;
2020/03/08 04:07:20;;;;;;;7.6;5.7;;;;;;;0.66;84.38965;942.3848;;;;
2020/03/08 04:09:45;;;;;;;6.5;5.6;;;;;;;0.73;83.95801;942.4059;;;;
2020/03/08 04:12:10;;;;;;;7.8;5.3;;;;;;;0.67;83.89063;942.329;;;;
2020/03/08 04:14:35;;;;;;;7.2;5.4;;;;;;;0.74;83.66895;942.3539;;;;
2020/03/08 04:17:00;;;;;;;6.4;4.7;;;;;;;0.76;82.99414;942.3614;;;;
2020/03/08 04:19:26;;;;;;;5.4;4.7;;;;;;;0.54;83.41797;942.3272;;;;
2020/03/08 04:21:51;;;;;;;6.5;4.7;;;;;;;0.43;83.9873;942.3926;;;;
2020/03/08 04:24:16;;;;;;;6.6;5;;;;;;;0.31;84.25391;942.4183;;;;
2020/03/08 04:26:41;;;;;;;6.6;5.1;;;;;;;0.07;85.33301;942.3769;;;;
2020/03/08 04:29:06;;;;;;;6.6;4.7;;;;;;;0.12;85.35254;942.3984;;;;
2020/03/08 04:31:31;;;;;;;7.1;4.7;;;;;;;0.09;85.21191;942.3214;;;;
2020/03/08 04:33:56;;;;;;;6.5;4.8;;;;;;;0.19;85.00879;942.3125;;;;
2020/03/08 04:36:21;;;;;;;5;4.5;;;;;;;0.22;84.53516;942.3239;;;;
2020/03/08 04:38:46;;;;;;;7.2;5.1;;;;;;;0.23;84.53711;942.2586;;;;
2020/03/08 04:41:12;;;;;;;6;4.5;;;;;;;0.33;83.8877;942.3055;;;;
2020/03/08 04:43:37;;;;;;;7;4.2;;;;;;;0.35;83.62598;942.2952;;;;
2020/03/08 04:46:02;;;;;;;6.4;4.2;;;;;;;0.07;84.19629;942.3331;;;;
2020/03/08 04:48:27;;;;;;;6;4.5;;;;;;;-0.15;85.50977;942.3773;;;;
2020/03/08 04:50:52;;;;;;;7.2;4.4;;;;;;;-0.1;85.83105;942.3824;;;;
2020/03/08 04:53:17;;;;;;;7.4;4.4;;;;;;;0.01;85.75391;942.4343;;;;
2020/03/08 04:55:42;;;;;;;6.6;5;;;;;;;0.05;85.18262;942.4067;;;;
2020/03/08 04:58:07;;;;;;;7.3;4.8;;;;;;;0.04;85.21387;942.4469;;;;
2020/03/08 05:00:33;;;;;;;7.8;5.4;;;;;;;-0.16;86.27637;942.4584;;;;
2020/03/08 05:02:58;;;;;;;7.6;5;;;;;;;-0.09;86.34668;942.4919;;;;
2020/03/08 05:05:23;;;;;;;9.9;5.7;;;;;;;0.11;85.32715;942.4202;;;;
2020/03/08 05:07:48;;;;;;;10.1;6.5;;;;;;;0.24;84.60742;942.4152;;;;
2020/03/08 05:10:13;;;;;;;12;7.2;;;;;;;0.34;83.73535;942.4109;;;;
2020/03/08 05:12:38;;;;;;;11.5;7.6;;;;;;;0.19;84.03027;942.4719;;;;
2020/03/08 05:15:04;;;;;;;6.2;4.6;;;;;;;0.01;84.27246;942.4769;;;;
2020/03/08 05:17:29;;;;;;;5.3;4.3;;;;;;;-0.31;85.28906;942.4797;;;;
2020/03/08 05:19:54;;;;;;;7.3;5.3;;;;;;;-0.48;86.27832;942.3876;;;;
2020/03/08 05:22:19;;;;;;;9.5;6.7;;;;;;;-0.47;86.71191;942.4927;;;;
2020/03/08 05:24:44;;;;;;;17.5;10.1;;;;;;;-0.32;86.4209;942.4744;;;;
2020/03/08 05:27:09;;;;;;;12.3;8.1;;;;;;;-0.4;85.98145;942.5466;;;;
2020/03/08 05:29:34;;;;;;;8;6.1;;;;;;;-0.5;86.37305;942.5801;;;;
2020/03/08 05:31:59;;;;;;;8.2;5.7;;;;;;;-0.4;85.86035;942.498;;;;
2020/03/08 05:34:24;;;;;;;8.1;5.1;;;;;;;-0.36;85.26563;942.546;;;;
2020/03/08 05:36:50;;;;;;;8.1;6.2;;;;;;;-0.39;85.30664;942.5658;;;;
2020/03/08 05:39:15;;;;;;;9;7.2;;;;;;;-0.41;85.13379;942.5081;;;;
2020/03/08 05:41:40;;;;;;;6.5;5.1;;;;;;;-0.44;85.09473;942.4522;;;;
2020/03/08 05:44:05;;;;;;;6.7;4.7;;;;;;;-0.48;85.38672;942.5375;;;;
2020/03/08 05:46:30;;;;;;;8.2;5.3;;;;;;;-0.27;84.75098;942.4331;;;;
2020/03/08 05:48:55;;;;;;;6.9;4.4;;;;;;;-0.33;84.54883;942.5058;;;;
2020/03/08 05:51:20;;;;;;;7;4.6;;;;;;;-0.24;84.47852;942.4919;;;;
2020/03/08 05:53:45;;;;;;;6.1;4.5;;;;;;;-0.06;83.86816;942.5226;;;;
2020/03/08 05:56:11;;;;;;;6.1;4.4;;;;;;;0.03;83.54102;942.5328;;;;
2020/03/08 05:58:36;;;;;;;7.1;4.6;;;;;;;0.08;83.22852;942.5535;;;;
2020/03/08 06:01:01;;;;;;;6.5;4.7;;;;;;;0.17;82.77637;942.4103;;;;
2020/03/08 06:03:26;;;;;;;7.6;5.1;;;;;;;0.03;82.93945;942.5231;;;;
2020/03/08 06:05:52;;;;;;;5.8;4.8;;;;;;;0.09;82.67285;942.4954;;;;
2020/03/08 06:08:17;;;;;;;5.7;4.4;;;;;;;0.22;82.25195;942.5198;;;;
2020/03/08 06:10:42;;;;;;;5.9;4.8;;;;;;;0.09;82.11426;942.5446;;;;
2020/03/08 06:13:07;;;;;;;5;4;;;;;;;-0.01;82.24023;942.5223;;;;
2020/03/08 06:15:32;;;;;;;4.9;3.9;;;;;;;-0.14;82.45996;942.5551;;;;
2020/03/08 06:17:58;;;;;;;5.5;4.4;;;;;;;-0.22;82.93555;942.5778;;;;
2020/03/08 06:20:23;;;;;;;6.7;4.2;;;;;;;-0.06;83.30957;942.6047;;;;
2020/03/08 06:22:49;;;;;;;6.7;3.9;;;;;;;0.46;82.14355;942.5826;;;;
2020/03/08 06:25:15;;;;;;;5.1;3;;;;;;;0.95;78.88867;942.4747;;;;
2020/03/08 06:27:40;;;;;;;5.8;4.2;;;;;;;1.01;77.87207;942.5149;;;;
2020/03/08 06:30:05;;;;;;;8.9;4.7;;;;;;;1.26;77.29297;942.5471;;;;
2020/03/08 06:32:30;;;;;;;7.8;4.9;;;;;;;1.59;75.90039;942.6308;;;;
2020/03/08 06:34:56;;;;;;;5.9;3.9;;;;;;;1.47;75.87793;942.5986;;;;
2020/03/08 06:37:21;;;;;;;5.9;4.5;;;;;;;1.59;75.7998;942.5773;;;;
2020/03/08 06:39:46;;;;;;;5;3.8;;;;;;;1.76;75.64941;942.5474;;;;
2020/03/08 06:42:11;;;;;;;5.4;3.9;;;;;;;2.1;73.85254;942.5273;;;;
2020/03/08 06:44:36;;;;;;;6;3.1;;;;;;;2.43;72.44336;942.4171;;;;
2020/03/08 06:47:01;;;;;;;5.1;2.7;;;;;;;2.54;72.08984;942.4771;;;;
2020/03/08 06:49:26;;;;;;;3.7;2.6;;;;;;;2.79;71.12402;942.4392;;;;
2020/03/08 06:51:52;;;;;;;3.8;2.7;;;;;;;2.65;70.28125;942.5004;;;;
2020/03/08 06:54:17;;;;;;;4.5;3.4;;;;;;;2.68;70.82715;942.5334;;;;
2020/03/08 06:56:42;;;;;;;4.6;3.2;;;;;;;2.82;70.40137;942.4748;;;;
2020/03/08 06:59:07;;;;;;;5.9;3.1;;;;;;;2.7;70.02148;942.4438;;;;
2020/03/08 07:01:32;;;;;;;4.2;2.8;;;;;;;2.59;69.57813;942.5062;;;;
2020/03/08 07:03:58;;;;;;;3.4;2.6;;;;;;;2.63;69.51758;942.5273;;;;
2020/03/08 07:06:23;;;;;;;4.9;3.1;;;;;;;2.98;70.1123;942.4913;;;;
2020/03/08 07:08:48;;;;;;;4;2.8;;;;;;;3.01;68.21289;942.449;;;;
2020/03/08 07:11:13;;;;;;;4.4;3;;;;;;;3.2;67.78125;942.4601;;;;
2020/03/08 07:13:38;;;;;;;4.3;2.9;;;;;;;3.58;67.07813;942.4119;;;;
2020/03/08 07:16:04;;;;;;;6.1;4;;;;;;;4.35;64.25195;942.4098;;;;
2020/03/08 07:18:29;;;;;;;5.7;3.4;;;;;;;4.92;62.25098;942.4258;;;;
2020/03/08 07:20:54;;;;;;;6.5;3.5;;;;;;;5.28;61.13086;942.3511;;;;
2020/03/08 07:23:19;;;;;;;4.8;3.2;;;;;;;5.62;60.09668;942.3723;;;;
2020/03/08 07:25:44;;;;;;;4.1;2.6;;;;;;;5.25;59.01855;942.3816;;;;
2020/03/08 07:28:10;;;;;;;4.1;3;;;;;;;5.08;60.97852;942.4114;;;;
2020/03/08 07:30:34;;;;;;;5.8;3.6;;;;;;;6.12;58.58496;942.4311;;;;
2020/03/08 07:33:00;;;;;;;3.5;2.9;;;;;;;6.78;56.61426;942.4747;;;;
2020/03/08 07:35:25;;;;;;;3.7;2.4;;;;;;;7.67;53.74902;942.4216;;;;
2020/03/08 07:37:50;;;;;;;3.2;2.2;;;;;;;8.47;52.11035;942.4394;;;;
2020/03/08 07:40:15;;;;;;;2.6;1.9;;;;;;;9.2;48.15918;942.4059;;;;
2020/03/08 07:42:40;;;;;;;3.3;1.6;;;;;;;9.19;45.44824;942.3397;;;;
2020/03/08 07:45:06;;;;;;;3.1;2.1;;;;;;;8.42;50.38965;942.4366;;;;
2020/03/08 07:47:31;;;;;;;2.8;1.8;;;;;;;7.8;48.93359;942.3998;;;;
2020/03/08 07:49:56;;;;;;;2.2;1.7;;;;;;;7.83;49.34473;942.3873;;;;
2020/03/08 07:52:21;;;;;;;2.6;1.5;;;;;;;9.12;44.84863;942.3954;;;;
2020/03/08 07:54:47;;;;;;;2;1.5;;;;;;;9.23;45.30469;942.3283;;;;
2020/03/08 07:57:15;;;;;;;2;1.5;;;;;;;9.56;44.54199;942.3002;;;;
2020/03/08 07:59:38;;;;;;;1.9;1.3;;;;;;;10.54;43.03223;942.2866;;;;
2020/03/08 08:02:02;;;;;;;1.8;1.3;;;;;;;12.28;40.32813;942.3353;;;;
2020/03/08 08:04:28;;;;;;;2.1;1.6;;;;;;;11.99;39.01855;942.3447;;;;
2020/03/08 08:06:54;;;;;;;3;1.5;;;;;;;12.03;39.0459;942.3086;;;;
2020/03/08 08:09:19;;;;;;;5.6;1.5;;;;;;;13.88;35.39258;942.2704;;;;
2020/03/08 08:11:45;;;;;;;2.8;1.5;;;;;;;14.91;34.42676;942.2509;;;;
2020/03/08 08:14:11;;;;;;;3.6;1.5;;;;;;;16.08;31.63867;942.2043;;;;
2020/03/08 08:16:36;;;;;;;4.6;1.6;;;;;;;16.58;30.93457;942.2234;;;;
2020/03/08 08:19:02;;;;;;;3.9;1.7;;;;;;;17.54;29.57422;942.2124;;;;
2020/03/08 08:21:31;;;;;;;7.2;1.7;;;;;;;17.77;28.5918;942.1539;;;;
2020/03/08 08:23:53;;;;;;;3;1.4;;;;;;;18.7;28.87402;942.1324;;;;
2020/03/08 08:26:18;;;;;;;4.2;1.3;;;;;;;20.16;25.91113;942.056;;;;
2020/03/08 08:28:44;;;;;;;3.5;1.3;;;;;;;17.84;27.55176;942.0156;;;;
2020/03/08 08:31:09;;;;;;;1.5;1;;;;;;;17.96;27.83691;942.044;;;;
2020/03/08 08:33:34;;;;;;;2;1.1;;;;;;;18.19;29.12988;942.0412;;;;
2020/03/08 08:36:00;;;;;;;1.8;1.1;;;;;;;17.88;28.58691;941.9983;;;;
2020/03/08 08:38:24;;;;;;;2.2;1.1;;;;;;;16.62;29.37402;942.0198;;;;
2020/03/08 08:40:50;;;;;;;2;1.1;;;;;;;16.96;29.75586;941.9622;;;;
2020/03/08 08:43:15;;;;;;;1.3;1.1;;;;;;;16.82;30.75488;941.8405;;;;
2020/03/08 08:45:40;;;;;;;6.6;3.6;;;;;;;17.05;28.34766;941.8813;;;;
2020/03/08 08:48:05;;;;;;;3.1;1.3;;;;;;;17.24;27.6875;941.8829;;;;
2020/03/08 08:50:30;;;;;;;2.1;1.3;;;;;;;15.99;30.46484;941.8752;;;;
2020/03/08 08:52:57;;;;;;;2.9;1.5;;;;;;;16.21;30.42188;941.8187;;;;
2020/03/08 08:55:24;;;;;;;8;1.6;;;;;;;17.68;27.91211;941.7653;;;;
2020/03/08 08:57:49;;;;;;;3.9;1.5;;;;;;;16.14;28.87891;941.775;;;;
2020/03/08 09:00:14;;;;;;;2.7;1.2;;;;;;;16.36;31.65918;941.7553;;;;
2020/03/08 09:02:40;;;;;;;2.9;1.3;;;;;;;17.97;29.8125;941.6651;;;;
2020/03/08 09:05:04;;;;;;;3.6;1.5;;;;;;;15.22;29.42969;941.5787;;;;
2020/03/08 09:07:30;;;;;;;4.4;1.8;;;;;;;14.79;30.75;941.5797;;;;
2020/03/08 09:09:55;;;;;;;2.3;1.5;;;;;;;16.35;30.01563;941.5705;;;;
2020/03/08 09:12:20;;;;;;;4.1;1.7;;;;;;;16.13;29.71094;941.5557;;;;
2020/03/08 09:14:45;;;;;;;2.8;1;;;;;;;16.77;28.17969;941.522;;;;
2020/03/08 09:17:14;;;;;;;1.9;1;;;;;;;15.99;29.72461;941.5033;;;;
2020/03/08 09:19:38;;;;;;;7.8;1.8;;;;;;;16.35;30.18848;941.4532;;;;
2020/03/08 09:22:04;;;;;;;6.8;1.5;;;;;;;15.68;30.73145;941.418;;;;
2020/03/08 09:24:29;;;;;;;9.2;1.5;;;;;;;13.88;31.81348;941.3762;;;;
2020/03/08 09:26:53;;;;;;;7.5;1.6;;;;;;;12.94;33.21484;941.3064;;;;
2020/03/08 09:29:18;;;;;;;4.2;1.4;;;;;;;13.13;33.36621;941.2668;;;;
2020/03/08 09:31:44;;;;;;;15.5;2.1;;;;;;;14.16;32.54785;941.2302;;;;
2020/03/08 09:34:08;;;;;;;4.5;1.4;;;;;;;13.99;32.58105;941.2034;;;;
2020/03/08 09:36:33;;;;;;;2;1.1;;;;;;;13.84;32.35156;941.1423;;;;
2020/03/08 09:38:59;;;;;;;3.6;1.3;;;;;;;14.09;32.54297;941.1421;;;;
2020/03/08 09:41:24;;;;;;;5.5;1.5;;;;;;;13.49;32.34766;941.1075;;;;
2020/03/08 09:43:49;;;;;;;1.6;1;;;;;;;13.27;33.00977;941.0833;;;;
2020/03/08 09:46:14;;;;;;;5.4;1.2;;;;;;;13.7;29.95996;941.0394;;;;
2020/03/08 09:48:40;;;;;;;2.3;0.9;;;;;;;13.26;29.53906;940.9889;;;;
2020/03/08 09:51:05;;;;;;;5.9;1.6;;;;;;;13.48;32.04883;940.9314;;;;
2020/03/08 09:53:30;;;;;;;10.1;1.9;;;;;;;12.89;32.98047;940.9377;;;;
2020/03/08 09:55:55;;;;;;;3.8;1.2;;;;;;;12.37;32.47168;940.8468;;;;
2020/03/08 09:58:20;;;;;;;4.4;1.7;;;;;;;11.83;33.50781;940.8191;;;;
2020/03/08 10:00:58;;;;;;;2.5;1.5;;;;;;;12.28;33.2334;940.7472;;;;
2020/03/08 10:03:17;;;;;;;2.8;1.3;;;;;;;12.91;33.00488;940.7924;;;;
2020/03/08 10:05:41;;;;;;;3.5;1.1;;;;;;;13.21;35.7168;940.7025;;;;
2020/03/08 10:08:07;;;;;;;2.2;1;;;;;;;14.38;33.86621;940.6665;;;;
2020/03/08 10:10:32;;;;;;;7.3;1.3;;;;;;;14.57;30.83789;940.5874;;;;
2020/03/08 10:12:57;;;;;;;3.4;1.3;;;;;;;13.89;31.88281;940.6406;;;;
2020/03/08 10:15:22;;;;;;;2.9;1.1;;;;;;;14.03;32.48047;940.5751;;;;
2020/03/08 10:17:47;;;;;;;3.6;1.2;;;;;;;14.05;30.88184;940.58;;;;
2020/03/08 10:20:12;;;;;;;1.9;0.9;;;;;;;13.28;29.85156;940.5634;;;;
2020/03/08 10:22:37;;;;;;;1.8;0.9;;;;;;;13.45;33.77051;940.5281;;;;
2020/03/08 10:25:02;;;;;;;3.1;0.9;;;;;;;13.57;33.84863;940.5204;;;;
2020/03/08 10:27:27;;;;;;;3;1;;;;;;;13.61;34.07129;940.4412;;;;
2020/03/08 10:29:53;;;;;;;3.6;1;;;;;;;13.33;35.15234;940.3884;;;;
2020/03/08 10:32:19;;;;;;;2.2;1.1;;;;;;;13.4;31.92773;940.3055;;;;
2020/03/08 10:34:43;;;;;;;1.8;0.9;;;;;;;12.84;32.65527;940.402;;;;
2020/03/08 10:37:08;;;;;;;1.8;1;;;;;;;13.12;33.82617;940.3194;;;;
2020/03/08 10:39:33;;;;;;;5.5;1.1;;;;;;;13.8;31.97949;940.2264;;;;
2020/03/08 10:41:58;;;;;;;2.5;1;;;;;;;13.93;32.3584;940.2587;;;;
2020/03/08 10:44:23;;;;;;;2.3;1;;;;;;;14.65;32.12305;940.2317;;;;
2020/03/08 10:46:48;;;;;;;3;1;;;;;;;14.92;28.52148;940.2391;;;;
2020/03/08 10:49:13;;;;;;;1.7;0.8;;;;;;;14.19;29.5332;940.0609;;;;
2020/03/08 10:51:38;;;;;;;2.4;0.9;;;;;;;15.08;29.89355;940.1239;;;;
2020/03/08 10:54:04;;;;;;;1.2;0.9;;;;;;;15.01;27.24707;940.0823;;;;
2020/03/08 10:56:29;;;;;;;3.5;0.9;;;;;;;15.06;28.01172;940.051;;;;
2020/03/08 10:58:54;;;;;;;1.8;0.8;;;;;;;15.35;29.26563;939.9991;;;;
2020/03/08 11:01:19;;;;;;;1.9;0.7;;;;;;;15.42;28.20801;939.9702;;;;
2020/03/08 11:03:44;;;;;;;0.9;0.7;;;;;;;16.9;25.16406;939.8786;;;;
2020/03/08 11:06:09;;;;;;;1.7;0.8;;;;;;;17.7;26.06836;939.7241;;;;
2020/03/08 11:08:34;;;;;;;1;0.6;;;;;;;17.32;23.92383;939.8359;;;;
2020/03/08 11:10:59;;;;;;;0.7;0.5;;;;;;;17.49;23.56152;939.7942;;;;
2020/03/08 11:13:24;;;;;;;0.9;0.6;;;;;;;17.74;24.50391;939.7307;;;;
2020/03/08 11:15:49;;;;;;;0.9;0.7;;;;;;;17.13;25.00293;939.6619;;;;
2020/03/08 11:18:17;;;;;;;1;0.6;;;;;;;16.12;27.45508;939.6268;;;;
2020/03/08 11:20:40;;;;;;;1.4;0.6;;;;;;;16.92;24.85156;939.5438;;;;
2020/03/08 11:23:05;;;;;;;3.6;0.8;;;;;;;17.33;24.96777;939.5781;;;;
2020/03/08 11:25:30;;;;;;;2.1;0.8;;;;;;;18.39;23.93555;939.5261;;;;
2020/03/08 11:27:55;;;;;;;1.5;0.8;;;;;;;19.58;21.90234;939.485;;;;
2020/03/08 11:30:20;;;;;;;0.8;0.5;;;;;;;20.3;20.20996;939.4127;;;;
2020/03/08 11:32:46;;;;;;;1.6;0.8;;;;;;;18.45;22.9043;939.4165;;;;
2020/03/08 11:35:11;;;;;;;1.6;0.8;;;;;;;20.47;22.49512;939.4409;;;;
2020/03/08 11:37:36;;;;;;;1;0.7;;;;;;;22.1;19.30762;939.2833;;;;
2020/03/08 11:40:01;;;;;;;3.4;0.8;;;;;;;23.71;17.74219;939.3167;;;;
2020/03/08 11:42:26;;;;;;;1.4;0.7;;;;;;;23.34;19.53809;939.3594;;;;
2020/03/08 11:44:52;;;;;;;1.3;0.5;;;;;;;24.17;16.7002;939.3025;;;;
2020/03/08 11:47:18;;;;;;;0.8;0.5;;;;;;;24.71;16.2373;939.2735;;;;
2020/03/08 11:49:43;;;;;;;1.1;0.7;;;;;;;25.51;15.34473;939.2402;;;;
2020/03/08 11:52:11;;;;;;;2.1;0.9;;;;;;;22.59;16.24219;939.1905;;;;
2020/03/08 11:54:33;;;;;;;1.5;0.7;;;;;;;21.93;17.38965;939.1983;;;;
2020/03/08 11:56:58;;;;;;;2.5;0.7;;;;;;;22.94;16.66602;939.1974;;;;
2020/03/08 11:59:23;;;;;;;1.8;0.8;;;;;;;23.34;16.28125;939.135;;;;
2020/03/08 12:01:48;;;;;;;1.6;0.7;;;;;;;24.9;14.92285;939.0486;;;;
2020/03/08 12:04:14;;;;;;;1.2;0.6;;;;;;;23.96;15.05566;939.0955;;;;
2020/03/08 12:06:39;;;;;;;0.9;0.7;;;;;;;24.72;15.8125;939.0248;;;;
2020/03/08 12:09:04;;;;;;;2.2;0.7;;;;;;;26.77;14.88965;938.9691;;;;
2020/03/08 12:11:29;;;;;;;1.1;0.5;;;;;;;27.65;13.22266;938.9559;;;;
2020/03/08 12:13:54;;;;;;;2.7;1;;;;;;;26.5;14.75098;938.8903;;;;
2020/03/08 12:16:20;;;;;;;1.8;0.9;;;;;;;26.98;14.00879;938.7988;;;;
2020/03/08 12:18:44;;;;;;;1.8;0.6;;;;;;;28.48;12.99707;938.7355;;;;
2020/03/08 12:21:09;;;;;;;2;0.8;;;;;;;29.36;11.9502;938.7247;;;;
2020/03/08 12:23:34;;;;;;;1.2;0.6;;;;;;;30.49;12.02832;938.6284;;;;
2020/03/08 12:25:59;;;;;;;3.2;1;;;;;;;31.41;12.2793;938.6231;;;;
2020/03/08 12:28:25;;;;;;;1.4;0.8;;;;;;;31.65;11.1123;938.5953;;;;
2020/03/08 12:30:50;;;;;;;1.5;1.1;;;;;;;31.18;11.00488;938.5808;;;;
2020/03/08 12:33:15;;;;;;;1;0.7;;;;;;;32.54;10.31836;938.5109;;;;
2020/03/08 12:35:40;;;;;;;1.1;0.6;;;;;;;33.33;10.26367;938.4772;;;;
2020/03/08 12:38:05;;;;;;;0.9;0.6;;;;;;;32.69;10.95801;938.5081;;;;
2020/03/08 12:40:30;;;;;;;1.2;0.8;;;;;;;30.9;11.75195;938.454;;;;
2020/03/08 12:42:55;;;;;;;1.1;0.6;;;;;;;30.31;12.09473;938.4109;;;;
2020/03/08 12:45:20;;;;;;;0.8;0.6;;;;;;;30.09;12.05273;938.4381;;;;
2020/03/08 12:47:45;;;;;;;0.8;0.6;;;;;;;31.46;11.32324;938.4739;;;;
2020/03/08 12:50:10;;;;;;;1.7;0.6;;;;;;;32.29;11.42773;938.4128;;;;
2020/03/08 12:52:35;;;;;;;1.3;0.8;;;;;;;32.3;10.67285;938.3889;;;;
2020/03/08 12:55:00;;;;;;;5.3;0.9;;;;;;;32.75;10.7793;938.4124;;;;
2020/03/08 12:57:28;;;;;;;2.5;1.5;;;;;;;32.27;11.31934;938.3039;;;;
2020/03/08 12:59:51;;;;;;;1.2;0.9;;;;;;;31.24;12.28711;938.3408;;;;
2020/03/08 13:02:16;;;;;;;1.3;0.9;;;;;;;29.41;12.85645;938.2844;;;;
2020/03/08 13:04:41;;;;;;;2.4;1.8;;;;;;;28.12;14.30566;938.253;;;;
2020/03/08 13:07:06;;;;;;;1.5;1;;;;;;;27.59;14.38379;938.2533;;;;
2020/03/08 13:09:31;;;;;;;2;0.8;;;;;;;27.92;14.44141;938.1899;;;;
2020/03/08 13:11:56;;;;;;;1;0.7;;;;;;;28.27;13.15723;938.1397;;;;
2020/03/08 13:14:21;;;;;;;1.9;0.6;;;;;;;28.09;14.35156;938.0834;;;;
2020/03/08 13:16:46;;;;;;;1.2;0.8;;;;;;;27.42;14.70996;938.123;;;;
2020/03/08 13:19:11;;;;;;;1.2;0.7;;;;;;;26.08;16.03809;938.0527;;;;
2020/03/08 13:21:37;;;;;;;1.6;0.7;;;;;;;24.59;17.06934;937.9836;;;;
2020/03/08 13:24:02;;;;;;;1.4;0.8;;;;;;;23.36;19.02148;937.9543;;;;
2020/03/08 13:26:27;;;;;;;0.7;0.7;;;;;;;22.31;18.82422;938.01;;;;
2020/03/08 13:28:52;;;;;;;2.6;0.7;;;;;;;20.84;19.67383;937.9486;;;;
2020/03/08 13:31:17;;;;;;;1;0.7;;;;;;;19.47;21.33691;937.9852;;;;
2020/03/08 13:33:42;;;;;;;1.1;0.8;;;;;;;19.42;21.41602;937.9303;;;;
2020/03/08 13:36:07;;;;;;;2.3;0.9;;;;;;;19.27;21.52539;937.9064;;;;
2020/03/08 13:38:32;;;;;;;1.4;0.8;;;;;;;19;22.57227;937.8381;;;;
2020/03/08 13:40:58;;;;;;;1.4;0.8;;;;;;;18.9;22.11328;937.7946;;;;
2020/03/08 13:43:23;;;;;;;1.6;0.9;;;;;;;18.46;24.76465;937.9172;;;;
2020/03/08 13:45:48;;;;;;;1.1;0.9;;;;;;;18.53;23.10645;937.8455;;;;
2020/03/08 13:48:14;;;;;;;1.7;1.2;;;;;;;18.2;23.95996;937.8196;;;;
2020/03/08 13:50:38;;;;;;;1.2;0.9;;;;;;;18.68;22.93945;937.8226;;;;
2020/03/08 13:53:03;;;;;;;1.9;0.9;;;;;;;19.06;23.29688;937.707;;;;
2020/03/08 13:55:28;;;;;;;1.8;0.9;;;;;;;18.96;22.9541;937.6624;;;;
2020/03/08 13:57:53;;;;;;;1.7;1.2;;;;;;;20.03;21.91309;937.6365;;;;
2020/03/08 14:00:18;;;;;;;1.9;0.8;;;;;;;19.65;21.66016;937.6539;;;;
2020/03/08 14:02:44;;;;;;;1.6;0.7;;;;;;;19.86;20.9707;937.5378;;;;
2020/03/08 14:05:09;;;;;;;1.9;1;;;;;;;19.54;22.14551;937.4786;;;;
2020/03/08 14:07:34;;;;;;;1.1;0.7;;;;;;;19.23;23.98145;937.4852;;;;
2020/03/08 14:09:59;;;;;;;1.2;0.7;;;;;;;19.28;22.33008;937.4879;;;;
2020/03/08 14:12:24;;;;;;;1;0.7;;;;;;;19.47;23.12012;937.4811;;;;
2020/03/08 14:14:49;;;;;;;1;0.6;;;;;;;20.14;21.54395;937.3572;;;;
2020/03/08 14:17:14;;;;;;;1;0.7;;;;;;;19.95;21.65234;937.2943;;;;
2020/03/08 14:19:39;;;;;;;2.3;0.8;;;;;;;21.91;21.2207;937.2893;;;;
2020/03/08 14:22:04;;;;;;;1.6;0.6;;;;;;;22.68;19.46191;937.2864;;;;
2020/03/08 14:24:29;;;;;;;0.8;0.7;;;;;;;23.36;18.16309;937.2319;;;;
2020/03/08 14:26:55;;;;;;;1.5;1;;;;;;;24.73;16.91016;937.2313;;;;
2020/03/08 14:29:20;;;;;;;1.3;0.7;;;;;;;25.4;15.88477;937.1808;;;;
2020/03/08 14:31:45;;;;;;;1;0.5;;;;;;;25.67;15.08984;937.2151;;;;
2020/03/08 14:34:10;;;;;;;0.9;0.7;;;;;;;26.37;15.08984;937.2178;;;;
2020/03/08 14:36:35;;;;;;;2;0.9;;;;;;;26.47;15.7207;937.1506;;;;
2020/03/08 14:39:00;;;;;;;1;0.8;;;;;;;26.51;15.40234;937.0733;;;;
2020/03/08 14:41:25;;;;;;;1.5;1;;;;;;;26.94;14.58789;937.1213;;;;
2020/03/08 14:43:50;;;;;;;1.3;0.7;;;;;;;27.95;13.86035;937.0146;;;;
2020/03/08 14:46:16;;;;;;;1.5;0.8;;;;;;;28.15;14.52051;936.9033;;;;
2020/03/08 14:48:41;;;;;;;1;0.6;;;;;;;28;14.55078;936.8914;;;;
2020/03/08 14:51:06;;;;;;;1.9;0.9;;;;;;;27.32;15.11035;936.8758;;;;
2020/03/08 14:53:31;;;;;;;1.8;0.7;;;;;;;26.37;16.08496;936.8589;;;;
2020/03/08 14:55:56;;;;;;;1.3;0.8;;;;;;;25.87;16.07813;936.7773;;;;
2020/03/08 14:58:21;;;;;;;2.7;1.3;;;;;;;25.65;15.5625;936.7177;;;;
2020/03/08 15:00:46;;;;;;;2.9;1.6;;;;;;;25.62;15.9043;936.6895;;;;
2020/03/08 15:03:12;;;;;;;2.3;0.9;;;;;;;24.61;16.31641;936.6433;;;;
2020/03/08 15:05:36;;;;;;;1.5;0.8;;;;;;;24.78;15.90918;936.5694;;;;
2020/03/08 15:08:02;;;;;;;2;1.1;;;;;;;24.34;17.58984;936.497;;;;
2020/03/08 15:10:27;;;;;;;1.8;1.1;;;;;;;24.16;17.55957;936.4939;;;;
2020/03/08 15:12:52;;;;;;;2.2;1.1;;;;;;;23.75;17.83789;936.4615;;;;
2020/03/08 15:15:17;;;;;;;1;0.7;;;;;;;23.48;17.81445;936.4037;;;;
2020/03/08 15:17:42;;;;;;;1.1;0.7;;;;;;;22.94;18.32227;936.4085;;;;
2020/03/08 15:20:07;;;;;;;1.6;0.9;;;;;;;22.51;19.37207;936.3967;;;;
2020/03/08 15:22:32;;;;;;;1.1;0.8;;;;;;;21.85;19.2373;936.3503;;;;
2020/03/08 15:24:57;;;;;;;3.8;1.4;;;;;;;20.93;21.65332;936.3923;;;;
2020/03/08 15:27:22;;;;;;;5.6;3;;;;;;;19.73;22.51563;936.3121;;;;
2020/03/08 15:29:47;;;;;;;4.9;2.5;;;;;;;18.27;23.62695;936.2717;;;;